sensor_id;sensor_type;location;lat;lon;timestamp;pressure;altitude;pressure_sealevel;temperature;humidity
61963;BME280;47927;42.646;23.096;2023-05-07T00:01:38;92340.41;;;10.91;57.91
61963;BME280;47927;42.646;23.096;2023-05-07T00:04:04;92352.00;;;10.93;57.74
61963;BME280;47927;42.646;23.096;2023-05-07T00:06:30;92281.34;;;10.35;57.80
61963;BME280;47927;42.646;23.096;2023-05-07T00:08:56;92352.22;;;10.81;57.23
61963;BME280;47927;42.646;23.096;2023-05-07T00:11:22;92331.59;;;10.65;56.99
61963;BME280;47927;42.646;23.096;2023-05-07T00:13:48;92349.41;;;10.63;57.28
61963;BME280;47927;42.646;23.096;2023-05-07T00:16:13;92301.34;;;10.27;57.33
61963;BME280;47927;42.646;23.096;2023-05-07T00:18:39;92275.53;;;9.88;58.48
61963;BME280;47927;42.646;23.096;2023-05-07T00:21:05;92316.25;;;10.03;58.09
61963;BME280;47927;42.646;23.096;2023-05-07T00:23:30;92339.97;;;10.25;58.61
61963;BME280;47927;42.646;23.096;2023-05-07T00:25:56;92341.31;;;10.12;59.36
61963;BME280;47927;42.646;23.096;2023-05-07T00:28:21;92349.72;;;10.28;58.86
61963;BME280;47927;42.646;23.096;2023-05-07T00:30:47;92341.31;;;10.38;58.41
61963;BME280;47927;42.646;23.096;2023-05-07T00:33:12;92347.25;;;10.39;58.24
61963;BME280;47927;42.646;23.096;2023-05-07T00:35:38;92325.97;;;10.07;58.42
61963;BME280;47927;42.646;23.096;2023-05-07T00:38:03;92342.25;;;10.00;59.86
61963;BME280;47927;42.646;23.096;2023-05-07T00:40:29;92339.84;;;10.14;59.01
61963;BME280;47927;42.646;23.096;2023-05-07T00:42:55;92284.34;;;9.80;58.65
61963;BME280;47927;42.646;23.096;2023-05-07T00:45:26;92338.78;;;10.19;58.36
61963;BME280;47927;42.646;23.096;2023-05-07T00:47:54;92344.41;;;10.21;58.47
61963;BME280;47927;42.646;23.096;2023-05-07T00:50:20;92312.47;;;9.97;58.71
61963;BME280;47927;42.646;23.096;2023-05-07T00:52:46;92274.47;;;9.66;58.60
61963;BME280;47927;42.646;23.096;2023-05-07T00:55:11;92336.09;;;10.12;58.18
61963;BME280;47927;42.646;23.096;2023-05-07T00:57:40;92338.69;;;10.12;58.03
61963;BME280;47927;42.646;23.096;2023-05-07T01:00:08;92250.91;;;9.29;59.07
61963;BME280;47927;42.646;23.096;2023-05-07T01:02:41;92342.13;;;9.93;59.78
61963;BME280;47927;42.646;23.096;2023-05-07T01:05:18;92334.28;;;9.89;60.54
61963;BME280;47927;42.646;23.096;2023-05-07T01:07:44;92330.38;;;9.76;61.02
61963;BME280;47927;42.646;23.096;2023-05-07T01:10:11;92241.16;;;9.22;58.44
61963;BME280;47927;42.646;23.096;2023-05-07T01:12:38;92295.16;;;9.55;58.68
61963;BME280;47927;42.646;23.096;2023-05-07T01:15:05;92337.16;;;9.84;58.93
61963;BME280;47927;42.646;23.096;2023-05-07T01:17:36;92338.94;;;9.76;58.54
61963;BME280;47927;42.646;23.096;2023-05-07T01:20:04;92341.66;;;9.61;59.87
61963;BME280;47927;42.646;23.096;2023-05-07T01:22:39;92339.19;;;9.68;59.44
61963;BME280;47927;42.646;23.096;2023-05-07T01:25:07;92342.19;;;9.70;59.41
61963;BME280;47927;42.646;23.096;2023-05-07T01:27:34;92342.22;;;9.73;59.80
61963;BME280;47927;42.646;23.096;2023-05-07T01:30:01;92318.94;;;9.57;59.96
61963;BME280;47927;42.646;23.096;2023-05-07T01:32:56;92287.06;;;9.15;61.14
61963;BME280;47927;42.646;23.096;2023-05-07T01:35:25;92337.16;;;9.57;60.85
61963;BME280;47927;42.646;23.096;2023-05-07T01:37:52;92254.38;;;9.13;59.94
61963;BME280;47927;42.646;23.096;2023-05-07T01:40:18;92227.88;;;9.04;59.94
61963;BME280;47927;42.646;23.096;2023-05-07T01:42:45;92314.78;;;9.76;59.80
61963;BME280;47927;42.646;23.096;2023-05-07T01:45:11;92329.28;;;9.77;60.13
61963;BME280;47927;42.646;23.096;2023-05-07T01:47:37;92317.34;;;9.49;60.88
61963;BME280;47927;42.646;23.096;2023-05-07T01:50:06;92331.66;;;9.63;60.32
61963;BME280;47927;42.646;23.096;2023-05-07T01:52:34;92325.06;;;9.69;59.67
61963;BME280;47927;42.646;23.096;2023-05-07T01:54:59;92326.56;;;9.70;59.54
61963;BME280;47927;42.646;23.096;2023-05-07T01:57:25;92328.34;;;9.66;59.85
61963;BME280;47927;42.646;23.096;2023-05-07T01:59:51;92318.69;;;9.66;59.98
61963;BME280;47927;42.646;23.096;2023-05-07T02:02:16;92308.66;;;9.19;61.75
61963;BME280;47927;42.646;23.096;2023-05-07T02:04:43;92253.16;;;8.84;62.15
61963;BME280;47927;42.646;23.096;2023-05-07T02:07:09;92306.31;;;9.33;61.94
61963;BME280;47927;42.646;23.096;2023-05-07T02:09:35;92229.66;;;9.00;61.32
61963;BME280;47927;42.646;23.096;2023-05-07T02:12:01;92301.84;;;9.56;60.74
61963;BME280;47927;42.646;23.096;2023-05-07T02:14:27;92297.97;;;9.47;60.06
61963;BME280;47927;42.646;23.096;2023-05-07T02:16:52;92299.31;;;9.14;61.65
61963;BME280;47927;42.646;23.096;2023-05-07T02:19:18;92279.94;;;8.88;62.76
61963;BME280;47927;42.646;23.096;2023-05-07T02:21:46;92299.75;;;8.97;63.06
61963;BME280;47927;42.646;23.096;2023-05-07T02:24:13;92300.34;;;9.09;62.95
61963;BME280;47927;42.646;23.096;2023-05-07T02:26:40;92279.56;;;9.09;62.89
61963;BME280;47927;42.646;23.096;2023-05-07T02:29:05;92302.78;;;9.22;62.79
61963;BME280;47927;42.646;23.096;2023-05-07T02:31:31;92296.31;;;9.35;62.14
61963;BME280;47927;42.646;23.096;2023-05-07T02:34:00;92260.19;;;9.07;61.62
61963;BME280;47927;42.646;23.096;2023-05-07T02:36:25;92301.63;;;9.19;62.38
61963;BME280;47927;42.646;23.096;2023-05-07T02:38:58;92299.72;;;9.16;62.47
61963;BME280;47927;42.646;23.096;2023-05-07T02:41:24;92284.59;;;8.79;63.17
61963;BME280;47927;42.646;23.096;2023-05-07T02:43:50;92303.41;;;9.15;62.96
61963;BME280;47927;42.646;23.096;2023-05-07T02:46:16;92298.41;;;9.26;62.67
61963;BME280;47927;42.646;23.096;2023-05-07T02:48:46;92300.63;;;9.50;61.99
61963;BME280;47927;42.646;23.096;2023-05-07T02:51:11;92296.22;;;9.54;61.49
61963;BME280;47927;42.646;23.096;2023-05-07T02:53:39;92237.16;;;9.05;61.38
61963;BME280;47927;42.646;23.096;2023-05-07T02:56:05;92235.78;;;9.11;61.17
61963;BME280;47927;42.646;23.096;2023-05-07T02:58:31;92231.97;;;9.05;60.94
61963;BME280;47927;42.646;23.096;2023-05-07T03:00:58;92292.09;;;9.27;61.88
61963;BME280;47927;42.646;23.096;2023-05-07T03:03:37;92280.81;;;8.96;62.96
61963;BME280;47927;42.646;23.096;2023-05-07T03:06:03;92301.50;;;9.35;62.15
61963;BME280;47927;42.646;23.096;2023-05-07T03:08:28;92249.75;;;9.03;62.11
61963;BME280;47927;42.646;23.096;2023-05-07T03:10:54;92290.94;;;9.47;61.44
61963;BME280;47927;42.646;23.096;2023-05-07T03:13:20;92310.97;;;9.70;60.86
61963;BME280;47927;42.646;23.096;2023-05-07T03:15:46;92310.34;;;9.80;60.15
61963;BME280;47927;42.646;23.096;2023-05-07T03:18:13;92310.34;;;9.80;59.93
61963;BME280;47927;42.646;23.096;2023-05-07T03:20:38;92267.44;;;9.40;58.91
61963;BME280;47927;42.646;23.096;2023-05-07T03:23:04;92313.44;;;9.63;59.21
61963;BME280;47927;42.646;23.096;2023-05-07T03:25:29;92324.13;;;9.57;59.01
61963;BME280;47927;42.646;23.096;2023-05-07T03:27:56;92328.66;;;9.61;58.61
61963;BME280;47927;42.646;23.096;2023-05-07T03:30:25;92330.03;;;9.54;58.96
61963;BME280;47927;42.646;23.096;2023-05-07T03:32:51;92327.16;;;9.59;59.14
61963;BME280;47927;42.646;23.096;2023-05-07T03:35:16;92311.44;;;9.52;59.03
61963;BME280;47927;42.646;23.096;2023-05-07T03:37:42;92304.63;;;9.44;58.73
61963;BME280;47927;42.646;23.096;2023-05-07T03:40:10;92339.22;;;9.71;58.67
61963;BME280;47927;42.646;23.096;2023-05-07T03:42:42;92273.78;;;9.20;58.61
61963;BME280;47927;42.646;23.096;2023-05-07T03:45:09;92342.00;;;9.82;59.24
61963;BME280;47927;42.646;23.096;2023-05-07T03:47:35;92308.94;;;10.13;58.66
61963;BME280;47927;42.646;23.096;2023-05-07T03:50:01;92348.84;;;10.77;58.23
61963;BME280;47927;42.646;23.096;2023-05-07T03:52:26;92340.06;;;11.30;57.81
61963;BME280;47927;42.646;23.096;2023-05-07T03:54:54;92336.03;;;11.84;56.60
61963;BME280;47927;42.646;23.096;2023-05-07T03:57:20;92328.91;;;12.32;54.89
61963;BME280;47927;42.646;23.096;2023-05-07T03:59:46;92344.88;;;13.08;53.53
61963;BME280;47927;42.646;23.096;2023-05-07T04:02:12;92337.53;;;13.85;51.83
61963;BME280;47927;42.646;23.096;2023-05-07T04:04:38;92272.78;;;14.00;49.63
61963;BME280;47927;42.646;23.096;2023-05-07T04:07:04;92367.56;;;15.18;46.56
61963;BME280;47927;42.646;23.096;2023-05-07T04:09:33;92370.69;;;15.58;46.21
61963;BME280;47927;42.646;23.096;2023-05-07T04:11:59;92369.84;;;16.28;44.74
61963;BME280;47927;42.646;23.096;2023-05-07T04:14:24;92373.72;;;17.26;42.43
61963;BME280;47927;42.646;23.096;2023-05-07T04:16:50;92378.16;;;17.87;40.38
61963;BME280;47927;42.646;23.096;2023-05-07T04:19:16;92367.13;;;18.42;39.05
61963;BME280;47927;42.646;23.096;2023-05-07T04:21:41;92384.84;;;19.05;38.17
61963;BME280;47927;42.646;23.096;2023-05-07T04:24:07;92390.41;;;19.11;38.70
61963;BME280;47927;42.646;23.096;2023-05-07T04:26:32;92371.06;;;18.98;38.61
61963;BME280;47927;42.646;23.096;2023-05-07T04:28:59;92389.81;;;18.83;39.04
61963;BME280;47927;42.646;23.096;2023-05-07T04:31:29;92379.59;;;18.62;38.83
61963;BME280;47927;42.646;23.096;2023-05-07T04:33:56;92391.66;;;18.63;39.54
61963;BME280;47927;42.646;23.096;2023-05-07T04:36:21;92338.19;;;18.59;39.87
61963;BME280;47927;42.646;23.096;2023-05-07T04:38:56;92384.25;;;18.07;39.92
61963;BME280;47927;42.646;23.096;2023-05-07T04:41:22;92381.19;;;17.58;41.78
61963;BME280;47927;42.646;23.096;2023-05-07T04:43:48;92389.75;;;17.93;41.28
61963;BME280;47927;42.646;23.096;2023-05-07T04:46:16;92400.25;;;18.43;39.53
61963;BME280;47927;42.646;23.096;2023-05-07T04:48:42;92354.88;;;18.76;39.78
61963;BME280;47927;42.646;23.096;2023-05-07T04:51:08;92397.47;;;19.54;37.59
61963;BME280;47927;42.646;23.096;2023-05-07T04:53:33;92403.19;;;20.05;36.25
61963;BME280;47927;42.646;23.096;2023-05-07T04:55:59;92399.06;;;20.53;35.61
61963;BME280;47927;42.646;23.096;2023-05-07T04:58:31;92407.00;;;20.99;35.21
61963;BME280;47927;42.646;23.096;2023-05-07T05:01:00;92401.34;;;22.06;33.00
61963;BME280;47927;42.646;23.096;2023-05-07T05:03:27;92406.16;;;22.59;31.08
61963;BME280;47927;42.646;23.096;2023-05-07T05:05:52;92365.91;;;22.95;30.43
61963;BME280;47927;42.646;23.096;2023-05-07T05:08:19;92331.06;;;23.46;29.14
61963;BME280;47927;42.646;23.096;2023-05-07T05:10:45;92412.66;;;25.26;27.66
61963;BME280;47927;42.646;23.096;2023-05-07T05:13:10;92402.53;;;26.90;26.12
61963;BME280;47927;42.646;23.096;2023-05-07T05:15:38;92406.13;;;27.70;24.29
61963;BME280;47927;42.646;23.096;2023-05-07T05:18:04;92397.88;;;28.54;22.91
61963;BME280;47927;42.646;23.096;2023-05-07T05:20:30;92415.38;;;28.70;23.13
61963;BME280;47927;42.646;23.096;2023-05-07T05:22:56;92415.00;;;29.70;22.18
61963;BME280;47927;42.646;23.096;2023-05-07T05:25:21;92411.03;;;30.66;20.80
61963;BME280;47927;42.646;23.096;2023-05-07T05:27:47;92415.91;;;31.16;19.99
61963;BME280;47927;42.646;23.096;2023-05-07T05:30:13;92405.09;;;30.94;20.53
61963;BME280;47927;42.646;23.096;2023-05-07T05:32:38;92401.56;;;31.53;19.63
61963;BME280;47927;42.646;23.096;2023-05-07T05:35:05;92364.63;;;31.98;18.34
61963;BME280;47927;42.646;23.096;2023-05-07T05:37:31;92407.94;;;32.34;18.41
61963;BME280;47927;42.646;23.096;2023-05-07T05:39:58;92426.56;;;33.77;17.63
61963;BME280;47927;42.646;23.096;2023-05-07T05:42:25;92432.00;;;34.07;17.41
61963;BME280;47927;42.646;23.096;2023-05-07T05:44:51;92428.56;;;34.07;17.19
61963;BME280;47927;42.646;23.096;2023-05-07T05:47:16;92403.38;;;35.34;15.78
61963;BME280;47927;42.646;23.096;2023-05-07T05:49:42;92412.16;;;36.11;15.06
61963;BME280;47927;42.646;23.096;2023-05-07T05:52:11;92427.09;;;35.66;15.57
61963;BME280;47927;42.646;23.096;2023-05-07T05:54:37;92422.16;;;36.88;14.25
61963;BME280;47927;42.646;23.096;2023-05-07T05:57:04;92433.50;;;37.53;13.71
61963;BME280;47927;42.646;23.096;2023-05-07T05:59:30;92417.69;;;37.85;13.31
61963;BME280;47927;42.646;23.096;2023-05-07T06:01:56;92373.84;;;36.86;13.85
61963;BME280;47927;42.646;23.096;2023-05-07T06:04:22;92352.50;;;37.51;13.30
61963;BME280;47927;42.646;23.096;2023-05-07T06:06:47;92357.63;;;37.07;13.74
61963;BME280;47927;42.646;23.096;2023-05-07T06:09:13;92357.63;;;36.94;13.76
61963;BME280;47927;42.646;23.096;2023-05-07T06:11:41;92437.41;;;38.62;12.68
61963;BME280;47927;42.646;23.096;2023-05-07T06:14:07;92435.56;;;37.94;13.63
61963;BME280;47927;42.646;23.096;2023-05-07T06:16:33;92437.25;;;38.39;13.56
61963;BME280;47927;42.646;23.096;2023-05-07T06:18:59;92392.34;;;38.82;13.30
61963;BME280;47927;42.646;23.096;2023-05-07T06:21:25;92430.38;;;39.32;12.67
61963;BME280;47927;42.646;23.096;2023-05-07T06:23:50;92414.81;;;39.48;13.19
61963;BME280;47927;42.646;23.096;2023-05-07T06:26:17;92423.13;;;40.40;11.94
61963;BME280;47927;42.646;23.096;2023-05-07T06:28:45;92424.94;;;39.99;12.91
61963;BME280;47927;42.646;23.096;2023-05-07T06:31:17;92382.38;;;39.21;12.62
61963;BME280;47927;42.646;23.096;2023-05-07T06:33:51;92376.22;;;40.26;12.43
61963;BME280;47927;42.646;23.096;2023-05-07T06:36:17;92418.78;;;40.21;12.42
61963;BME280;47927;42.646;23.096;2023-05-07T06:38:44;92400.75;;;40.72;12.19
61963;BME280;47927;42.646;23.096;2023-05-07T06:41:09;92384.00;;;40.45;11.88
61963;BME280;47927;42.646;23.096;2023-05-07T06:44:00;92413.31;;;40.21;12.35
61963;BME280;47927;42.646;23.096;2023-05-07T06:46:36;92399.13;;;41.32;11.61
61963;BME280;47927;42.646;23.096;2023-05-07T06:49:03;92385.28;;;40.36;12.67
61963;BME280;47927;42.646;23.096;2023-05-07T06:51:29;92410.47;;;41.61;11.66
61963;BME280;47927;42.646;23.096;2023-05-07T06:53:59;92350.75;;;41.10;10.88
61963;BME280;47927;42.646;23.096;2023-05-07T06:56:24;92406.19;;;40.57;12.29
61963;BME280;47927;42.646;23.096;2023-05-07T06:58:50;92350.34;;;40.42;12.10
61963;BME280;47927;42.646;23.096;2023-05-07T07:01:16;92395.50;;;41.30;11.67
61963;BME280;47927;42.646;23.096;2023-05-07T07:03:43;92386.94;;;41.99;10.91
61963;BME280;47927;42.646;23.096;2023-05-07T07:06:08;92384.75;;;41.24;11.89
61963;BME280;47927;42.646;23.096;2023-05-07T07:08:34;92411.78;;;41.53;11.51
61963;BME280;47927;42.646;23.096;2023-05-07T07:11:00;92355.84;;;41.13;11.97
61963;BME280;47927;42.646;23.096;2023-05-07T07:13:26;92384.72;;;41.32;11.70
61963;BME280;47927;42.646;23.096;2023-05-07T07:15:52;92391.16;;;41.19;11.25
61963;BME280;47927;42.646;23.096;2023-05-07T07:18:18;92408.66;;;41.97;10.82
61963;BME280;47927;42.646;23.096;2023-05-07T07:20:46;92398.53;;;40.78;12.30
61963;BME280;47927;42.646;23.096;2023-05-07T07:23:12;92375.03;;;39.60;12.29
61963;BME280;47927;42.646;23.096;2023-05-07T07:25:38;92391.03;;;40.94;11.53
61963;BME280;47927;42.646;23.096;2023-05-07T07:28:05;92396.41;;;41.25;11.65
61963;BME280;47927;42.646;23.096;2023-05-07T07:30:30;92406.56;;;40.07;11.55
61963;BME280;47927;42.646;23.096;2023-05-07T07:32:56;92395.66;;;41.32;11.13
61963;BME280;47927;42.646;23.096;2023-05-07T07:35:33;92393.25;;;40.88;10.99
61963;BME280;47927;42.646;23.096;2023-05-07T07:37:59;92412.31;;;41.03;11.33
61963;BME280;47927;42.646;23.096;2023-05-07T07:40:25;92373.22;;;41.41;11.36
61963;BME280;47927;42.646;23.096;2023-05-07T07:42:51;92418.31;;;41.65;9.83
61963;BME280;47927;42.646;23.096;2023-05-07T07:45:17;92417.13;;;41.76;9.71
61963;BME280;47927;42.646;23.096;2023-05-07T07:47:46;92384.63;;;41.14;9.87
61963;BME280;47927;42.646;23.096;2023-05-07T07:50:12;92423.50;;;41.38;10.81
61963;BME280;47927;42.646;23.096;2023-05-07T07:52:37;92418.03;;;40.59;10.80
61963;BME280;47927;42.646;23.096;2023-05-07T07:55:04;92344.69;;;39.63;11.73
61963;BME280;47927;42.646;23.096;2023-05-07T07:57:30;92406.94;;;40.49;10.90
61963;BME280;47927;42.646;23.096;2023-05-07T07:59:56;92414.59;;;40.36;11.36
61963;BME280;47927;42.646;23.096;2023-05-07T08:02:21;92377.66;;;39.96;11.02
61963;BME280;47927;42.646;23.096;2023-05-07T08:04:48;92395.31;;;40.18;11.90
61963;BME280;47927;42.646;23.096;2023-05-07T08:07:14;92412.59;;;40.13;11.03
61963;BME280;47927;42.646;23.096;2023-05-07T08:09:43;92400.78;;;39.36;11.89
61963;BME280;47927;42.646;23.096;2023-05-07T08:12:09;92396.72;;;40.04;11.29
61963;BME280;47927;42.646;23.096;2023-05-07T08:14:35;92408.59;;;40.45;11.75
61963;BME280;47927;42.646;23.096;2023-05-07T08:17:03;92405.47;;;40.71;10.97
61963;BME280;47927;42.646;23.096;2023-05-07T08:19:29;92397.41;;;40.96;11.10
61963;BME280;47927;42.646;23.096;2023-05-07T08:21:55;92400.19;;;39.97;11.70
61963;BME280;47927;42.646;23.096;2023-05-07T08:24:22;92389.53;;;38.17;13.00
61963;BME280;47927;42.646;23.096;2023-05-07T08:26:48;92376.38;;;38.29;12.78
61963;BME280;47927;42.646;23.096;2023-05-07T08:29:21;92356.47;;;37.92;13.55
61963;BME280;47927;42.646;23.096;2023-05-07T08:31:56;92399.72;;;38.45;12.88
61963;BME280;47927;42.646;23.096;2023-05-07T08:34:22;92376.50;;;39.09;13.10
61963;BME280;47927;42.646;23.096;2023-05-07T08:36:49;92368.84;;;38.71;12.75
61963;BME280;47927;42.646;23.096;2023-05-07T08:39:17;92397.59;;;38.51;13.03
61963;BME280;47927;42.646;23.096;2023-05-07T08:41:45;92339.84;;;38.17;13.61
61963;BME280;47927;42.646;23.096;2023-05-07T08:44:13;92389.34;;;38.65;12.49
61963;BME280;47927;42.646;23.096;2023-05-07T08:46:45;92349.63;;;36.62;14.82
61963;BME280;47927;42.646;23.096;2023-05-07T08:49:15;92363.25;;;37.78;14.63
61963;BME280;47927;42.646;23.096;2023-05-07T08:51:45;92384.13;;;37.83;13.93
61963;BME280;47927;42.646;23.096;2023-05-07T08:54:15;92387.00;;;38.40;13.31
61963;BME280;47927;42.646;23.096;2023-05-07T08:56:41;92382.38;;;39.21;12.66
61963;BME280;47927;42.646;23.096;2023-05-07T08:59:07;92378.47;;;39.53;11.46
61963;BME280;47927;42.646;23.096;2023-05-07T09:01:32;92333.59;;;38.37;12.75
61963;BME280;47927;42.646;23.096;2023-05-07T09:04:01;92335.19;;;37.62;13.43
61963;BME280;47927;42.646;23.096;2023-05-07T09:06:28;92342.13;;;35.96;14.80
61963;BME280;47927;42.646;23.096;2023-05-07T09:08:54;92355.25;;;36.50;15.22
61963;BME280;47927;42.646;23.096;2023-05-07T09:11:23;92369.16;;;36.60;15.27
61963;BME280;47927;42.646;23.096;2023-05-07T09:13:53;92361.13;;;36.68;14.00
61963;BME280;47927;42.646;23.096;2023-05-07T09:16:20;92367.06;;;36.66;14.27
61963;BME280;47927;42.646;23.096;2023-05-07T09:18:47;92373.06;;;37.12;14.61
61963;BME280;47927;42.646;23.096;2023-05-07T09:21:18;92323.28;;;36.17;14.67
61963;BME280;47927;42.646;23.096;2023-05-07T09:23:45;92314.41;;;35.25;14.95
61963;BME280;47927;42.646;23.096;2023-05-07T09:26:14;92276.09;;;33.91;16.54
61963;BME280;47927;42.646;23.096;2023-05-07T09:28:41;92334.91;;;32.32;18.24
61963;BME280;47927;42.646;23.096;2023-05-07T09:31:10;92333.03;;;31.43;19.23
61963;BME280;47927;42.646;23.096;2023-05-07T09:33:37;92263.47;;;30.91;20.08
61963;BME280;47927;42.646;23.096;2023-05-07T09:36:07;92358.00;;;31.49;20.21
61963;BME280;47927;42.646;23.096;2023-05-07T09:38:35;92359.09;;;30.92;20.04
61963;BME280;47927;42.646;23.096;2023-05-07T09:41:07;92347.13;;;30.01;20.33
61963;BME280;47927;42.646;23.096;2023-05-07T09:43:40;92361.97;;;29.07;21.77
61963;BME280;47927;42.646;23.096;2023-05-07T09:46:14;92336.81;;;29.04;22.48
61963;BME280;47927;42.646;23.096;2023-05-07T09:48:46;92344.16;;;29.62;22.27
61963;BME280;47927;42.646;23.096;2023-05-07T09:51:22;92319.69;;;29.54;21.50
61963;BME280;47927;42.646;23.096;2023-05-07T09:53:50;92315.88;;;31.18;20.92
61963;BME280;47927;42.646;23.096;2023-05-07T09:56:17;92353.72;;;33.19;18.06
61963;BME280;47927;42.646;23.096;2023-05-07T09:58:45;92332.69;;;33.11;17.36
61963;BME280;47927;42.646;23.096;2023-05-07T10:01:12;92348.47;;;33.73;17.96
61963;BME280;47927;42.646;23.096;2023-05-07T10:03:41;92350.19;;;34.07;16.75
61963;BME280;47927;42.646;23.096;2023-05-07T10:06:09;92305.81;;;34.64;15.81
61963;BME280;47927;42.646;23.096;2023-05-07T10:08:37;92338.50;;;34.85;16.23
61963;BME280;47927;42.646;23.096;2023-05-07T10:11:04;92338.63;;;34.55;16.33
61963;BME280;47927;42.646;23.096;2023-05-07T10:13:32;92341.69;;;33.20;16.91
61963;BME280;47927;42.646;23.096;2023-05-07T10:15:59;92337.91;;;32.12;17.59
61963;BME280;47927;42.646;23.096;2023-05-07T10:18:31;92299.44;;;31.04;19.21
61963;BME280;47927;42.646;23.096;2023-05-07T10:21:17;92277.22;;;31.49;19.00
61963;BME280;47927;42.646;23.096;2023-05-07T10:26:32;92313.16;;;31.23;19.34
61963;BME280;47927;42.646;23.096;2023-05-07T10:35:10;92317.34;;;28.63;22.39
61963;BME280;47927;42.646;23.096;2023-05-07T10:37:39;92307.97;;;28.53;22.21
61963;BME280;47927;42.646;23.096;2023-05-07T10:40:06;92233.22;;;28.14;21.97
61963;BME280;47927;42.646;23.096;2023-05-07T10:42:33;92312.06;;;29.47;20.92
61963;BME280;47927;42.646;23.096;2023-05-07T10:45:11;92266.69;;;29.86;20.60
61963;BME280;47927;42.646;23.096;2023-05-07T10:48:14;92298.41;;;30.79;19.21
61963;BME280;47927;42.646;23.096;2023-05-07T10:50:43;92302.75;;;30.71;19.44
61963;BME280;47927;42.646;23.096;2023-05-07T10:58:50;92305.69;;;28.46;21.16
61963;BME280;47927;42.646;23.096;2023-05-07T11:02:15;92301.28;;;29.10;20.21
61963;BME280;47927;42.646;23.096;2023-05-07T11:05:22;92298.25;;;28.55;21.49
61963;BME280;47927;42.646;23.096;2023-05-07T11:08:10;92304.19;;;28.85;20.11
61963;BME280;47927;42.646;23.096;2023-05-07T11:11:01;92275.81;;;28.53;20.34
61963;BME280;47927;42.646;23.096;2023-05-07T11:13:47;92296.16;;;29.69;19.66
61963;BME280;47927;42.646;23.096;2023-05-07T11:16:25;92257.00;;;30.43;19.63
61963;BME280;47927;42.646;23.096;2023-05-07T11:19:12;92250.16;;;30.48;18.64
61963;BME280;47927;42.646;23.096;2023-05-07T11:21:42;92292.25;;;30.13;18.71
61963;BME280;47927;42.646;23.096;2023-05-07T11:24:27;92280.63;;;29.53;20.23
61963;BME280;47927;42.646;23.096;2023-05-07T11:27:01;92280.94;;;29.29;19.87
61963;BME280;47927;42.646;23.096;2023-05-07T11:29:29;92291.41;;;28.34;20.78
61963;BME280;47927;42.646;23.096;2023-05-07T11:32:02;92285.50;;;28.30;21.34
61963;BME280;47927;42.646;23.096;2023-05-07T11:34:34;92276.59;;;27.03;22.22
61963;BME280;47927;42.646;23.096;2023-05-07T11:37:00;92260.03;;;26.45;23.40
61963;BME280;47927;42.646;23.096;2023-05-07T11:39:42;92293.50;;;25.83;23.56
61963;BME280;47927;42.646;23.096;2023-05-07T11:42:25;92244.13;;;26.12;22.54
61963;BME280;47927;42.646;23.096;2023-05-07T11:44:50;92260.38;;;27.07;22.64
61963;BME280;47927;42.646;23.096;2023-05-07T11:47:20;92279.88;;;27.57;21.31
61963;BME280;47927;42.646;23.096;2023-05-07T11:49:50;92277.91;;;27.08;21.74
61963;BME280;47927;42.646;23.096;2023-05-07T11:52:16;92275.34;;;27.63;21.79
61963;BME280;47927;42.646;23.096;2023-05-07T11:54:49;92271.84;;;28.07;21.53
61963;BME280;47927;42.646;23.096;2023-05-07T11:57:15;92211.81;;;27.58;21.02
61963;BME280;47927;42.646;23.096;2023-05-07T11:59:41;92276.16;;;27.34;21.64
61963;BME280;47927;42.646;23.096;2023-05-07T12:02:07;92198.91;;;26.23;22.09
61963;BME280;47927;42.646;23.096;2023-05-07T12:04:33;92268.09;;;27.64;21.30
61963;BME280;47927;42.646;23.096;2023-05-07T12:06:58;92259.78;;;27.62;21.18
61963;BME280;47927;42.646;23.096;2023-05-07T12:09:24;92263.41;;;27.94;21.72
61963;BME280;47927;42.646;23.096;2023-05-07T12:15:00;92258.25;;;26.66;22.63
61963;BME280;47927;42.646;23.096;2023-05-07T12:21:19;92252.41;;;27.92;22.80
61963;BME280;47927;42.646;23.096;2023-05-07T12:23:56;92244.41;;;27.77;21.61
61963;BME280;47927;42.646;23.096;2023-05-07T12:26:21;92247.53;;;27.55;21.63
61963;BME280;47927;42.646;23.096;2023-05-07T12:28:49;92248.13;;;27.00;23.20
61963;BME280;47927;42.646;23.096;2023-05-07T12:31:14;92244.63;;;26.94;24.59
61963;BME280;47927;42.646;23.096;2023-05-07T12:33:41;92237.59;;;26.67;23.68
61963;BME280;47927;42.646;23.096;2023-05-07T12:36:07;92239.44;;;26.75;23.53
61963;BME280;47927;42.646;23.096;2023-05-07T12:38:37;92248.84;;;27.80;21.77
61963;BME280;47927;42.646;23.096;2023-05-07T12:41:04;92242.94;;;28.11;21.94
61963;BME280;47927;42.646;23.096;2023-05-07T12:43:30;92235.34;;;28.30;20.58
61963;BME280;47927;42.646;23.096;2023-05-07T12:45:57;92141.31;;;28.02;20.46
61963;BME280;47927;42.646;23.096;2023-05-07T12:48:23;92159.75;;;28.41;20.90
61963;BME280;47927;42.646;23.096;2023-05-07T12:50:50;92220.00;;;27.90;21.96
61963;BME280;47927;42.646;23.096;2023-05-07T12:53:16;92220.69;;;27.49;22.36
61963;BME280;47927;42.646;23.096;2023-05-07T12:55:50;92223.50;;;28.16;22.35
61963;BME280;47927;42.646;23.096;2023-05-07T12:58:17;92212.34;;;26.14;24.03
61963;BME280;47927;42.646;23.096;2023-05-07T13:00:43;92219.03;;;25.37;24.56
61963;BME280;47927;42.646;23.096;2023-05-07T13:03:10;92215.75;;;25.90;24.39
61963;BME280;47927;42.646;23.096;2023-05-07T13:05:36;92216.97;;;26.28;23.63
61963;BME280;47927;42.646;23.096;2023-05-07T13:08:02;92219.06;;;26.09;24.59
61963;BME280;47927;42.646;23.096;2023-05-07T13:10:27;92186.66;;;26.17;24.51
61963;BME280;47927;42.646;23.096;2023-05-07T13:12:53;92205.44;;;26.61;22.97
61963;BME280;47927;42.646;23.096;2023-05-07T13:18:40;92204.28;;;25.99;23.35
61963;BME280;47927;42.646;23.096;2023-05-07T13:21:06;92185.31;;;26.36;23.30
61963;BME280;47927;42.646;23.096;2023-05-07T13:23:31;92196.56;;;27.14;23.13